KANQ/ANQ METAR and TAF weather

Enter ICAO airport designator
Station Type Date Time Source
KANQ METAR 2020/12/01 21:15 UTC NOAA

KANQ 012115Z AUTO 30014G28KT 10SM BKN028 OVC032 03/M03 A2987 RMK AO2


Station Type Date Time Source
KANQ Decoded METAR 2020/12/01 21:15 UTC NOAA

Station name not available
Dec 01, 2020 - 04:15 PM EST / 2020.12.01 2115 UTC
Wind: from the WNW (300 degrees) at 16 MPH (14 KT) gusting to 32 MPH (28 KT):0
Visibility: 10 mile(s):0
Sky conditions: overcast
Temperature: 37 F (3 C)
Dew Point: 26 F (-3 C)
Relative Humidity: 64%
Pressure (altimeter): 29.87 in. Hg (1011 hPa)
ob: KANQ 012115Z AUTO 30014G28KT 10SM BKN028 OVC032 03/M03 A2987 RMK AO2
cycle: 21

Station Type Date Time Source
KANQ TAF UTC NOAA

Error!

Example: see airport list